Time;durP1;ratioP1;P1;durP2;ratioP2;P2;SDS_P1;SDS_P2;PMS_P1;PMS_P2;Temp;Humidity;BMP_temperature;BMP_pressure;BME280_temperature;BME280_humidity;BME280_pressure;Samples;Min_cycle;Max_cycle;Signal;HPM_P1;HPM_P2
2022/11/21 00:00:53;;;;;;;1999.90;999.90;;;;;;;0.22;95.91;99532.06;5002831;28;20036;-75
2022/11/21 00:03:19;;;;;;;1999.90;999.90;;;;;;;0.12;96.83;99531.88;5029027;28;20037;-75
2022/11/21 00:05:46;;;;;;;1999.90;999.90;;;;;;;0.11;96.60;99525.81;5021724;28;20400;-75
2022/11/21 00:08:14;;;;;;;1999.90;999.90;;;;;;;0.23;96.80;99517.38;5020238;28;20392;-75
2022/11/21 00:10:40;;;;;;;1999.90;999.90;;;;;;;0.32;97.01;99512.38;5020175;28;20044;-76
2022/11/21 00:13:07;;;;;;;1999.90;999.90;;;;;;;0.26;95.63;99504.44;5027522;28;20041;-75
2022/11/21 00:15:34;;;;;;;1999.90;999.90;;;;;;;0.28;96.58;99507.09;5023669;28;20115;-75
2022/11/21 00:18:02;;;;;;;1999.90;999.90;;;;;;;0.35;96.59;99504.63;5025617;28;20056;-75
2022/11/21 00:20:27;;;;;;;1999.90;999.90;;;;;;;0.36;95.99;99501.19;5022844;28;20039;-75
2022/11/21 00:22:52;;;;;;;1999.90;999.90;;;;;;;0.38;95.84;99504.69;5022137;28;20496;-75
2022/11/21 00:25:17;;;;;;;1999.90;999.90;;;;;;;0.35;96.08;99498.56;5023077;28;20572;-76
2022/11/21 00:27:43;;;;;;;1999.90;999.90;;;;;;;0.35;95.99;99496.84;5020550;28;20073;-75
2022/11/21 00:30:09;;;;;;;1999.90;999.90;;;;;;;0.29;96.69;99488.97;5021807;28;20068;-75
2022/11/21 00:32:35;;;;;;;1999.90;999.90;;;;;;;0.30;95.83;99475.13;5021863;28;20034;-75
2022/11/21 00:35:00;;;;;;;1999.90;999.90;;;;;;;0.33;96.94;99466.53;5023666;28;20055;-75
2022/11/21 00:37:26;;;;;;;1999.90;999.90;;;;;;;0.40;95.89;99460.59;5019412;28;20080;-76
2022/11/21 00:39:52;;;;;;;1999.90;999.90;;;;;;;0.37;95.99;99456.22;5020056;28;20088;-76
2022/11/21 00:42:17;;;;;;;1999.90;999.90;;;;;;;0.43;96.06;99451.13;5022386;28;20025;-76
2022/11/21 00:44:42;;;;;;;1999.90;999.90;;;;;;;0.43;96.44;99445.94;5022922;28;20041;-76
2022/11/21 00:47:08;;;;;;;1999.90;999.90;;;;;;;0.50;95.70;99449.53;5021131;28;20040;-75
2022/11/21 00:49:33;;;;;;;1999.90;999.90;;;;;;;0.51;95.58;99447.81;5020693;28;20034;-76
2022/11/21 00:51:59;;;;;;;1999.90;999.90;;;;;;;0.54;95.64;99440.06;5027679;28;20456;-75
2022/11/21 00:54:24;;;;;;;1999.90;999.90;;;;;;;0.57;95.53;99442.69;5025487;28;20104;-75
2022/11/21 00:56:49;;;;;;;1999.90;999.90;;;;;;;0.65;95.68;99435.91;5019439;28;20041;-76
2022/11/21 00:59:15;;;;;;;1999.90;999.90;;;;;;;0.66;94.80;99432.47;5004363;28;20048;-76
2022/11/21 01:01:40;;;;;;;1999.90;999.90;;;;;;;0.61;94.83;99432.41;5023641;28;20555;-76
2022/11/21 01:04:05;;;;;;;1999.90;999.90;;;;;;;0.59;95.03;99430.63;5023347;28;20512;-76
2022/11/21 01:06:31;;;;;;;1999.90;999.90;;;;;;;0.59;95.42;99430.63;5019770;28;20080;-76
2022/11/21 01:08:57;;;;;;;1999.90;999.90;;;;;;;0.53;95.49;99425.34;5025594;28;20053;-76
2022/11/21 01:11:22;;;;;;;1999.90;999.90;;;;;;;0.62;96.04;99430.66;5023118;28;20484;-76
2022/11/21 01:13:48;;;;;;;1999.90;999.90;;;;;;;0.67;95.64;99415.16;5023245;28;20042;-76
2022/11/21 01:16:16;;;;;;;1999.90;999.90;;;;;;;0.67;95.68;99416.03;5024109;28;20033;-76
2022/11/21 01:18:42;;;;;;;1999.90;999.90;;;;;;;0.66;95.85;99403.91;5004550;28;20515;-75
2022/11/21 01:21:17;;;;;;;1999.90;999.90;;;;;;;0.75;95.54;99401.44;5026139;28;20042;-76
2022/11/21 01:23:43;;;;;;;1999.90;999.90;;;;;;;0.72;95.48;99396.22;5012001;28;20373;-76
2022/11/21 01:26:17;;;;;;;1999.90;999.90;;;;;;;0.73;96.02;99395.34;5027738;28;20041;-76
2022/11/21 01:28:43;;;;;;;1999.90;999.90;;;;;;;0.74;96.20;99389.31;5026577;28;20065;-76
2022/11/21 01:31:13;;;;;;;1999.90;999.90;;;;;;;0.77;96.27;99381.56;5023316;28;20068;-75
2022/11/21 01:33:39;;;;;;;1999.90;999.90;;;;;;;0.71;96.63;99378.00;5026942;28;20033;-75
2022/11/21 01:36:40;;;;;;;1999.90;999.90;;;;;;;0.73;96.60;99366.78;5024816;28;20400;-75
2022/11/21 01:39:06;;;;;;;1999.90;999.90;;;;;;;0.68;96.67;99358.03;4926979;29;20042;-76
2022/11/21 01:41:34;;;;;;;1999.90;999.90;;;;;;;0.64;96.61;99354.53;5003270;28;20125;-75
2022/11/21 01:44:01;;;;;;;1999.90;999.90;;;;;;;0.63;96.95;99350.22;5009095;28;20083;-76
2022/11/21 01:46:26;;;;;;;1999.90;999.90;;;;;;;0.60;97.01;99357.97;5006237;28;20040;-76
2022/11/21 01:49:06;;;;;;;1999.90;999.90;;;;;;;0.67;97.01;99339.88;5025684;28;20025;-75
2022/11/21 01:51:39;;;;;;;1999.90;999.90;;;;;;;0.67;97.10;99339.88;5024256;28;20112;-75
2022/11/21 01:54:28;;;;;;;1999.90;999.90;;;;;;;0.71;97.11;99339.03;5026307;28;20045;-76
2022/11/21 01:57:02;;;;;;;1999.90;999.90;;;;;;;0.68;96.84;99337.28;5025579;28;20099;-75
2022/11/21 01:59:32;;;;;;;1999.90;999.90;;;;;;;0.68;97.39;99337.28;5023757;28;20038;-76
2022/11/21 02:02:00;;;;;;;1999.90;999.90;;;;;;;0.59;98.16;99339.75;5028035;28;20077;-75
2022/11/21 02:04:29;;;;;;;1999.90;999.90;;;;;;;0.64;98.35;99338.97;5026347;28;20128;-76
2022/11/21 02:06:55;;;;;;;1999.90;999.90;;;;;;;0.65;98.38;99332.03;5021803;28;20034;-75
2022/11/21 02:09:20;;;;;;;1999.90;999.90;;;;;;;0.74;98.47;99324.41;5023714;28;21462;-76
2022/11/21 02:11:53;;;;;;;1999.90;999.90;;;;;;;0.82;98.46;99325.38;5030402;28;20496;-76
2022/11/21 02:14:18;;;;;;;;;;;;;;;0.87;98.13;99328.03;5029547;28;20507;-76
2022/11/21 02:16:45;;;;;;;1999.90;999.90;;;;;;;0.83;98.26;99337.50;5023776;28;19914;-76
2022/11/21 02:19:19;;;;;;;1999.90;999.90;;;;;;;0.88;98.15;99328.03;5030788;28;20476;-75
2022/11/21 02:21:56;;;;;;;1999.90;999.90;;;;;;;0.94;97.80;99324.66;5029291;28;20044;-75
2022/11/21 02:24:31;;;;;;;1999.90;999.90;;;;;;;0.90;97.56;99322.00;5026619;28;20463;-75
2022/11/21 02:26:58;;;;;;;1999.90;999.90;;;;;;;0.91;97.28;99315.94;5021935;28;20037;-75
2022/11/21 02:29:24;;;;;;;1999.90;999.90;;;;;;;0.83;98.15;99321.03;5025479;28;20029;-76
2022/11/21 02:31:51;;;;;;;1999.90;999.90;;;;;;;0.88;98.13;99320.25;5022288;28;20096;-75
2022/11/21 02:34:16;;;;;;;1999.90;999.90;;;;;;;0.91;97.31;99311.63;5026017;28;20045;-76
2022/11/21 02:36:46;;;;;;;1999.90;999.90;;;;;;;0.93;98.53;99312.53;5020361;28;20096;-75
2022/11/21 02:39:26;;;;;;;1999.90;999.90;;;;;;;0.92;98.21;99304.69;5024727;28;20505;-76
2022/11/21 02:42:20;;;;;;;1999.90;999.90;;;;;;;0.98;97.98;99297.00;5023276;28;20076;-76
2022/11/21 02:45:06;;;;;;;1999.90;999.90;;;;;;;0.97;98.27;99287.44;5025273;28;20060;-76
2022/11/21 02:47:33;;;;;;;1999.90;999.90;;;;;;;0.93;98.32;99283.94;5023459;28;20038;-76
2022/11/21 02:50:09;;;;;;;1999.90;999.90;;;;;;;0.96;98.59;99280.50;5022590;28;20076;-75
2022/11/21 02:52:34;;;;;;;1999.90;999.90;;;;;;;0.96;98.50;99283.09;5022306;28;20046;-76
2022/11/21 02:55:00;;;;;;;1999.90;999.90;;;;;;;0.99;98.75;99277.94;5025545;28;20049;-76
2022/11/21 02:57:25;;;;;;;1999.90;999.90;;;;;;;1.05;98.48;99270.25;5026932;28;20034;-76
2022/11/21 02:59:50;;;;;;;1999.90;999.90;;;;;;;1.05;98.49;99270.25;5022569;28;20065;-75
2022/11/21 03:02:15;;;;;;;1999.90;999.90;;;;;;;1.02;99.12;99272.78;5024340;28;20041;-76
2022/11/21 03:04:41;;;;;;;1999.90;999.90;;;;;;;0.97;98.78;99264.97;5025171;28;20408;-76
2022/11/21 03:07:06;;;;;;;1999.90;999.90;;;;;;;0.95;99.31;99266.66;5019146;28;20397;-75
2022/11/21 03:09:31;;;;;;;1999.90;999.90;;;;;;;1.04;99.82;99268.47;5024059;28;20048;-75
2022/11/21 03:11:57;;;;;;;1999.90;999.90;;;;;;;1.09;98.97;99267.69;5022645;28;20040;-75
2022/11/21 03:14:22;;;;;;;1999.90;999.90;;;;;;;1.16;98.51;99263.44;5025205;28;20045;-75
2022/11/21 03:16:47;;;;;;;1999.90;999.90;;;;;;;1.18;98.76;99259.13;5021747;28;20048;-75
2022/11/21 03:19:13;;;;;;;1999.90;999.90;;;;;;;1.21;98.11;99261.75;5024250;28;20041;-75
2022/11/21 03:21:38;;;;;;;1999.90;999.90;;;;;;;1.20;98.66;99256.53;5021091;28;20045;-75
2022/11/21 03:24:04;;;;;;;1999.90;999.90;;;;;;;1.20;98.68;99249.59;5027653;28;20044;-75
2022/11/21 03:26:29;;;;;;;1999.90;999.90;;;;;;;1.23;99.06;99260.06;5021895;28;20041;-75
2022/11/21 03:28:54;;;;;;;1999.90;999.90;;;;;;;1.27;98.64;99254.03;5023074;28;20063;-75
2022/11/21 03:31:20;;;;;;;1999.90;999.90;;;;;;;1.25;98.84;99250.53;5023120;28;20041;-75
2022/11/21 03:33:45;;;;;;;1999.90;999.90;;;;;;;1.27;98.40;99245.34;5024670;28;20040;-75
2022/11/21 03:36:10;;;;;;;1999.90;999.90;;;;;;;1.30;98.48;99246.25;5022983;28;20073;-76
2022/11/21 03:38:36;;;;;;;1999.90;999.90;;;;;;;1.28;98.23;99247.09;5019795;28;20070;-76
2022/11/21 03:41:28;;;;;;;1999.90;999.90;;;;;;;1.33;98.77;99249.75;5023453;28;20025;-76
2022/11/21 03:43:51;;;;;;;1999.90;999.90;;;;;;;1.21;98.25;99240.97;5023940;28;20041;-76
2022/11/21 03:46:16;;;;;;;1999.90;999.90;;;;;;;1.13;99.55;99241.72;5021680;28;20168;-76
2022/11/21 03:48:41;;;;;;;1999.90;999.90;;;;;;;1.20;99.88;99243.53;5030474;28;20037;-76
2022/11/21 03:51:07;;;;;;;1999.90;999.90;;;;;;;1.21;99.12;99240.97;5026810;28;20042;-76
2022/11/21 03:53:32;;;;;;;1999.90;999.90;;;;;;;1.17;99.76;99239.19;5024463;28;20040;-76
2022/11/21 03:55:57;;;;;;;1999.90;999.90;;;;;;;1.11;99.95;99236.53;5025460;28;20029;-76
2022/11/21 03:58:23;;;;;;;1999.90;999.90;;;;;;;1.11;100.00;99233.94;5029381;28;20033;-76
2022/11/21 04:00:48;;;;;;;1999.90;999.90;;;;;;;1.17;100.00;99226.19;5022887;28;20036;-76
2022/11/21 04:03:13;;;;;;;1999.90;999.90;;;;;;;1.24;100.00;99228.00;5023434;28;20119;-76
2022/11/21 04:05:38;;;;;;;1999.90;999.90;;;;;;;1.27;99.97;99235.81;5033210;28;20124;-76
2022/11/21 04:08:04;;;;;;;1999.90;999.90;;;;;;;1.23;99.92;99228.88;5024103;28;20113;-76
2022/11/21 04:10:29;;;;;;;1999.90;999.90;;;;;;;1.22;100.00;99229.72;5023734;28;20064;-76
2022/11/21 04:12:54;;;;;;;1999.90;999.90;;;;;;;1.21;100.00;99233.19;5023672;28;20037;-76
2022/11/21 04:15:20;;;;;;;1999.90;999.90;;;;;;;1.20;100.00;99230.53;5022802;28;20095;-76
2022/11/21 04:17:45;;;;;;;1999.90;999.90;;;;;;;1.13;99.66;99220.94;5006427;28;20041;-76
2022/11/21 04:20:10;;;;;;;1999.90;999.90;;;;;;;1.18;100.00;99224.47;5024135;28;20044;-76
2022/11/21 04:22:36;;;;;;;1999.90;999.90;;;;;;;1.27;100.00;99230.63;5021948;28;20049;-76
2022/11/21 04:25:01;;;;;;;1999.90;999.90;;;;;;;1.33;100.00;99224.63;5021931;28;20041;-76
2022/11/21 04:27:26;;;;;;;1999.90;999.90;;;;;;;1.26;99.99;99218.50;5022920;28;20033;-76
2022/11/21 04:29:51;;;;;;;1999.90;999.90;;;;;;;1.22;100.00;99221.91;5019930;28;20038;-76
2022/11/21 04:32:17;;;;;;;1999.90;999.90;;;;;;;1.14;99.89;99226.16;5022596;28;20041;-76
2022/11/21 04:34:42;;;;;;;1999.90;999.90;;;;;;;1.12;100.00;99214.88;5022930;28;20045;-75
2022/11/21 04:37:07;;;;;;;1999.90;999.90;;;;;;;1.11;100.00;99225.28;5023405;28;20038;-76
2022/11/21 04:39:33;;;;;;;1999.90;999.90;;;;;;;1.21;100.00;99227.13;5026013;28;20049;-76
2022/11/21 04:41:58;;;;;;;1999.90;999.90;;;;;;;1.22;100.00;99227.09;5020106;28;20037;-76
2022/11/21 04:44:24;;;;;;;1999.90;999.90;;;;;;;1.14;100.00;99217.50;5023091;28;20057;-76
2022/11/21 04:46:51;;;;;;;1999.90;999.90;;;;;;;1.19;100.00;99221.03;5022602;28;20044;-76
2022/11/21 04:49:16;;;;;;;1999.90;999.90;;;;;;;1.13;100.00;99227.03;5024086;28;20496;-76
2022/11/21 04:51:41;;;;;;;1999.90;999.90;;;;;;;1.06;100.00;99220.00;5021062;28;20040;-76
2022/11/21 04:54:06;;;;;;;1999.90;999.90;;;;;;;1.01;100.00;99217.34;5023549;28;20041;-76
2022/11/21 04:56:32;;;;;;;1999.90;999.90;;;;;;;1.05;100.00;99223.47;5028131;28;20184;-75
2022/11/21 04:58:57;;;;;;;1999.90;999.90;;;;;;;1.04;100.00;99217.38;5020254;28;20062;-76
2022/11/21 05:01:22;;;;;;;1999.90;999.90;;;;;;;1.02;100.00;99219.13;5022299;28;20069;-75
2022/11/21 05:03:48;;;;;;;1999.90;999.90;;;;;;;0.81;100.00;99214.56;5024878;28;20065;-75
2022/11/21 05:06:13;;;;;;;1999.90;999.90;;;;;;;0.63;100.00;99219.50;5025073;28;20045;-75
2022/11/21 05:08:38;;;;;;;1999.90;999.90;;;;;;;0.53;100.00;99212.47;5026391;28;20083;-76
2022/11/21 05:13:48;;;;;;;1999.90;999.90;;;;;;;0.34;100.00;99222.59;5024073;28;20089;-76
2022/11/21 05:16:13;;;;;;;1999.90;999.90;;;;;;;0.34;100.00;99222.59;5020279;28;20069;-76
2022/11/21 05:18:38;;;;;;;1999.90;999.90;;;;;;;0.35;100.00;99215.69;5021930;28;20070;-77
2022/11/21 05:21:04;;;;;;;1999.90;999.90;;;;;;;0.24;100.00;99220.72;5019410;28;20056;-75
2022/11/21 05:23:29;;;;;;;1999.90;999.90;;;;;;;0.15;100.00;99220.56;5022882;28;20037;-75
2022/11/21 05:25:54;;;;;;;1999.90;999.90;;;;;;;0.17;100.00;99226.66;5020513;28;20033;-76
2022/11/21 05:28:20;;;;;;;1999.90;999.90;;;;;;;0.13;100.00;99222.25;5025359;28;20032;-76
2022/11/21 05:30:45;;;;;;;1999.90;999.90;;;;;;;0.14;100.00;99227.50;5021511;28;20635;-76
2022/11/21 05:33:10;;;;;;;1999.90;999.90;;;;;;;0.11;100.00;99230.03;5025947;28;20049;-76
2022/11/21 05:35:37;;;;;;;1999.90;999.90;;;;;;;0.18;100.00;99231.00;5029895;28;20073;-76
2022/11/21 05:38:02;;;;;;;1999.90;999.90;;;;;;;0.13;100.00;99230.03;5012283;28;20041;-76
2022/11/21 05:40:28;;;;;;;1999.90;999.90;;;;;;;0.10;100.00;99242.97;5029996;28;20094;-75
2022/11/21 05:45:37;;;;;;;1999.90;999.90;;;;;;;-0.03;100.00;99241.91;5025775;28;20362;-75
2022/11/21 05:48:06;;;;;;;1999.90;999.90;;;;;;;-0.09;100.00;99240.09;5027455;28;20116;-76
2022/11/21 05:50:33;;;;;;;1999.90;999.90;;;;;;;-0.12;100.00;99247.84;5022788;28;20484;-75
2022/11/21 05:53:04;;;;;;;1999.90;999.90;;;;;;;-0.14;100.00;99251.25;5029489;28;20041;-75
2022/11/21 05:55:32;;;;;;;1999.90;999.90;;;;;;;-0.10;100.00;99248.75;5022752;28;20041;-75
2022/11/21 05:57:59;;;;;;;1999.90;999.90;;;;;;;-0.20;100.00;99265.00;5028728;28;20041;-75
2022/11/21 06:00:24;;;;;;;1999.90;999.90;;;;;;;-0.20;100.00;99265.00;5029851;28;20034;-75
2022/11/21 06:05:34;;;;;;;1999.90;999.90;;;;;;;-0.29;100.00;99275.19;5026288;28;20120;-75
2022/11/21 06:07:59;;;;;;;1999.90;999.90;;;;;;;-0.24;100.00;99274.47;5024959;28;20168;-75
2022/11/21 06:10:24;;;;;;;1999.90;999.90;;;;;;;-0.26;100.00;99275.28;5025214;28;20053;-75
2022/11/21 06:12:50;;;;;;;1999.90;999.90;;;;;;;-0.32;100.00;99272.56;5025694;28;20042;-75
2022/11/21 06:15:15;;;;;;;1999.90;999.90;;;;;;;-0.32;100.00;99285.53;5025456;28;20045;-75
2022/11/21 06:17:40;;;;;;;1999.90;999.90;;;;;;;-0.28;100.00;99282.16;5022907;28;20045;-75
2022/11/21 06:20:06;;;;;;;1999.90;999.90;;;;;;;-0.24;100.00;99289.13;5024201;28;20040;-75
2022/11/21 06:22:32;;;;;;;1999.90;999.90;;;;;;;-0.26;100.00;99290.84;5023968;28;20069;-76
2022/11/21 06:24:57;;;;;;;1999.90;999.90;;;;;;;-0.24;100.00;99294.31;5029582;28;20092;-75
2022/11/21 06:27:22;;;;;;;1999.90;999.90;;;;;;;-0.16;100.00;99297.03;5028510;28;20033;-75
2022/11/21 06:29:48;;;;;;;1999.90;999.90;;;;;;;-0.23;100.00;99309.03;5028101;28;20412;-75
2022/11/21 06:32:13;;;;;;;1999.90;999.90;;;;;;;-0.31;100.00;99313.22;5022471;28;20389;-75
2022/11/21 06:34:38;;;;;;;1999.90;999.90;;;;;;;-0.31;100.00;99318.41;5024415;28;20416;-76
2022/11/21 06:37:04;;;;;;;1999.90;999.90;;;;;;;-0.32;100.00;99319.22;5025193;28;20440;-75
2022/11/21 06:39:29;;;;;;;1999.90;999.90;;;;;;;-0.28;100.00;99323.63;5026048;28;20103;-75
2022/11/21 06:41:54;;;;;;;1999.90;999.90;;;;;;;-0.28;100.00;99328.81;5026659;28;20077;-75
2022/11/21 06:44:19;;;;;;;1999.90;999.90;;;;;;;-0.25;100.00;99334.06;5017497;28;20041;-75
2022/11/21 06:46:45;;;;;;;1999.90;999.90;;;;;;;-0.35;100.00;99337.31;5029780;28;20044;-75
2022/11/21 06:49:10;;;;;;;1999.90;999.90;;;;;;;-0.35;100.00;99337.31;5044723;23;20045;-74
2022/11/21 06:51:36;;;;;;;1999.90;999.90;;;;;;;-0.40;100.00;99339.81;5039497;28;20494;-74
2022/11/21 06:54:01;;;;;;;1999.90;999.90;;;;;;;-0.33;100.00;99343.41;5035405;28;20030;-74
2022/11/21 06:56:29;;;;;;;1999.90;999.90;;;;;;;-0.31;100.00;99363.34;5041773;28;20032;-74
2022/11/21 06:58:55;;;;;;;1999.90;999.90;;;;;;;-0.31;100.00;99370.25;5040339;28;20041;-74
2022/11/21 07:01:21;;;;;;;1999.90;999.90;;;;;;;-0.29;100.00;99368.53;5044563;28;20049;-74
2022/11/21 07:03:47;;;;;;;1999.90;999.90;;;;;;;-0.33;100.00;99377.13;5042287;28;20033;-74
2022/11/21 07:06:12;;;;;;;1999.90;999.90;;;;;;;-0.40;100.00;99388.22;5036269;28;20103;-74
2022/11/21 07:08:39;;;;;;;1999.90;999.90;;;;;;;-0.43;100.00;99388.16;5042905;28;20117;-74
2022/11/21 07:11:08;;;;;;;1999.90;999.90;;;;;;;-0.33;100.00;99390.09;5040355;28;20045;-74
2022/11/21 07:13:34;;;;;;;1999.90;999.90;;;;;;;-0.24;100.00;99398.03;5037141;28;20065;-74
2022/11/21 07:16:02;;;;;;;1999.90;999.90;;;;;;;-0.20;100.00;99402.44;5043622;28;20056;-74
2022/11/21 07:18:28;;;;;;;1999.90;999.90;;;;;;;-0.28;100.00;99411.78;5042681;28;20041;-74
2022/11/21 07:20:57;;;;;;;1999.90;999.90;;;;;;;-0.30;100.00;99418.66;5042218;28;20033;-74
2022/11/21 07:23:23;;;;;;;1999.90;999.90;;;;;;;-0.33;100.00;99423.78;5044696;28;20454;-74
2022/11/21 07:25:48;;;;;;;1999.90;999.90;;;;;;;-0.24;100.00;99432.63;5042476;28;20075;-74
2022/11/21 07:28:13;;;;;;;1999.90;999.90;;;;;;;-0.18;100.00;99441.34;5041662;28;20038;-74
2022/11/21 07:30:39;;;;;;;1999.90;999.90;;;;;;;-0.18;100.00;99446.53;5037949;28;20044;-74
2022/11/21 07:33:05;;;;;;;1999.90;999.90;;;;;;;-0.22;100.00;99449.06;5038876;28;20041;-74
2022/11/21 07:35:32;;;;;;;1999.90;999.90;;;;;;;-0.24;100.00;99457.66;5042928;28;20430;-74
2022/11/21 07:37:57;;;;;;;1999.90;999.90;;;;;;;-0.22;100.00;99463.75;5040618;28;20045;-74
2022/11/21 07:40:23;;;;;;;1999.90;999.90;;;;;;;-0.25;100.00;99464.56;5040550;28;20064;-74
2022/11/21 07:42:48;;;;;;;1999.90;999.90;;;;;;;-0.23;100.00;99472.41;5043118;28;20060;-74
2022/11/21 07:45:14;;;;;;;1999.90;999.90;;;;;;;-0.20;100.00;99477.63;5038251;28;20040;-74
2022/11/21 07:47:40;;;;;;;1999.90;999.90;;;;;;;-0.20;100.00;99480.22;5035641;28;20025;-74
2022/11/21 07:50:07;;;;;;;1999.90;999.90;;;;;;;-0.21;100.00;99481.06;5040725;28;20056;-74
2022/11/21 07:52:33;;;;;;;1999.90;999.90;;;;;;;-0.19;100.00;99484.56;5043802;28;20036;-74
2022/11/21 07:55:01;;;;;;;1999.90;999.90;;;;;;;-0.14;100.00;99487.25;5007669;28;20454;-74
2022/11/21 07:57:26;;;;;;;1999.90;999.90;;;;;;;-0.17;100.00;99495.84;5040044;28;20171;-74
2022/11/21 07:59:51;;;;;;;1999.90;999.90;;;;;;;-0.10;100.00;99500.31;5041751;28;20123;-74
2022/11/21 08:02:22;;;;;;;1999.90;999.90;;;;;;;0.00;100.00;99501.38;5042589;28;20123;-74
2022/11/21 08:04:48;;;;;;;1999.90;999.90;;;;;;;0.03;100.00;99504.03;5039126;28;20481;-74
2022/11/21 08:07:14;;;;;;;1999.90;999.90;;;;;;;0.04;100.00;99497.13;5038865;28;20078;-74
2022/11/21 08:09:40;;;;;;;1999.90;999.90;;;;;;;0.07;100.00;99505.81;5042157;28;20037;-74
2022/11/21 08:12:05;;;;;;;1999.90;999.90;;;;;;;0.12;100.00;99511.13;5041782;28;20053;-74
2022/11/21 08:14:32;;;;;;;1999.90;999.90;;;;;;;0.18;100.00;99513.81;5040925;28;20068;-75
2022/11/21 08:16:57;;;;;;;1999.90;999.90;;;;;;;0.25;100.00;99515.69;5042821;28;20513;-74
2022/11/21 08:19:23;;;;;;;1999.90;999.90;;;;;;;0.40;100.00;99515.13;5040154;28;20121;-74
2022/11/21 08:21:48;;;;;;;1999.90;999.90;;;;;;;0.41;100.00;99507.34;5042927;28;20032;-74
2022/11/21 08:24:16;;;;;;;1999.90;999.90;;;;;;;0.46;100.00;99517.81;5040340;28;20053;-74
2022/11/21 08:26:42;;;;;;;1999.90;999.90;;;;;;;0.49;100.00;99517.00;5038943;28;20498;-74
2022/11/21 08:29:09;;;;;;;1999.90;999.90;;;;;;;0.57;100.00;99520.59;5042858;28;20037;-74
2022/11/21 08:31:35;;;;;;;1999.90;999.90;;;;;;;0.66;100.00;99523.38;5039658;28;20044;-74
2022/11/21 08:34:00;;;;;;;1999.90;999.90;;;;;;;0.73;100.00;99529.53;5042850;28;20033;-74
2022/11/21 08:36:26;;;;;;;1999.90;999.90;;;;;;;0.76;100.00;99533.06;5038891;28;20412;-74
2022/11/21 08:38:51;;;;;;;1999.90;999.90;;;;;;;0.72;100.00;99546.84;5040825;28;20480;-74
2022/11/21 08:44:01;;;;;;;1999.90;999.90;;;;;;;0.67;100.00;99560.59;5040123;28;20111;-74
2022/11/21 08:46:27;;;;;;;1999.90;999.90;;;;;;;0.75;100.00;99562.47;5041157;28;20040;-74
2022/11/21 08:48:55;;;;;;;1999.90;999.90;;;;;;;0.67;100.00;99564.06;5022231;28;20025;-74
2022/11/21 08:51:21;;;;;;;1999.90;999.90;;;;;;;0.64;100.00;99582.19;5030588;28;20041;-74
2022/11/21 08:53:46;;;;;;;1999.90;999.90;;;;;;;0.65;100.00;99576.13;5037585;28;20108;-74
2022/11/21 08:56:12;;;;;;;1999.90;999.90;;;;;;;0.71;100.00;99577.97;5039576;28;20502;-74
2022/11/21 08:58:39;;;;;;;1999.90;999.90;;;;;;;0.67;100.00;99576.16;5042165;28;20037;-75
2022/11/21 09:01:04;;;;;;;1999.90;999.90;;;;;;;0.63;100.00;99580.44;5040092;28;20064;-74
2022/11/21 09:03:29;;;;;;;1999.90;999.90;;;;;;;0.74;100.00;99576.31;5042088;28;20041;-75
2022/11/21 09:05:58;;;;;;;1999.90;999.90;;;;;;;0.79;99.46;99585.06;5036289;28;20052;-74
2022/11/21 09:08:24;;;;;;;1999.90;999.90;;;;;;;0.93;99.70;99585.31;5039850;28;20029;-74
2022/11/21 09:10:50;;;;;;;1999.90;999.90;;;;;;;1.09;99.27;99579.50;5038698;28;20115;-74
2022/11/21 09:13:15;;;;;;;1999.90;999.90;;;;;;;1.24;97.84;99578.91;5039387;28;20052;-74
2022/11/21 09:18:24;;;;;;;1999.90;999.90;;;;;;;1.49;96.01;99581.88;5037043;28;20033;-74
2022/11/21 09:20:49;;;;;;;1999.90;999.90;;;;;;;1.43;95.83;99589.59;5022476;28;20129;-74
2022/11/21 09:23:16;;;;;;;1999.90;999.90;;;;;;;1.29;96.05;99587.66;5038677;28;20037;-75
2022/11/21 09:25:42;;;;;;;1999.90;999.90;;;;;;;1.24;95.87;99591.91;4999663;28;20049;-75
2022/11/21 09:28:09;;;;;;;1999.90;999.90;;;;;;;1.38;96.82;99586.03;5039275;28;20152;-75
2022/11/21 09:30:36;;;;;;;1999.90;999.90;;;;;;;1.52;94.94;99592.34;5041285;28;20033;-74
2022/11/21 09:33:03;;;;;;;1999.90;999.90;;;;;;;1.52;94.89;99592.34;5041012;28;20034;-74
2022/11/21 09:35:29;;;;;;;1999.90;999.90;;;;;;;1.77;93.80;99592.69;5039500;28;20068;-75
2022/11/21 09:37:54;;;;;;;1999.90;999.90;;;;;;;1.75;93.67;99598.72;5045393;28;20072;-74
2022/11/21 09:40:20;;;;;;;1999.90;999.90;;;;;;;1.89;92.93;99600.69;5043073;28;20083;-75
2022/11/21 09:43:14;;;;;;;1999.90;999.90;;;;;;;1.92;92.23;99605.91;5044673;28;20037;-74
2022/11/21 09:45:43;;;;;;;1999.90;999.90;;;;;;;2.03;92.56;99609.53;5037886;28;20072;-74
2022/11/21 09:48:31;;;;;;;1999.90;999.90;;;;;;;2.06;91.29;99604.38;5037804;28;20111;-75
2022/11/21 09:51:06;;;;;;;1999.90;999.90;;;;;;;2.07;91.41;99598.31;5042890;28;20045;-75
2022/11/21 09:53:38;;;;;;;1999.90;999.90;;;;;;;2.13;91.07;99607.94;5034123;28;20029;-75
2022/11/21 09:56:09;;;;;;;1999.90;999.90;;;;;;;2.11;91.53;99600.09;5039834;28;20041;-75
2022/11/21 09:59:04;;;;;;;1999.90;999.90;;;;;;;2.25;91.35;99607.19;5044946;28;20041;-74
2022/11/21 10:01:29;;;;;;;1999.90;999.90;;;;;;;2.29;90.66;99611.59;4997301;28;20049;-75
2022/11/21 10:03:55;;;;;;;1999.90;999.90;;;;;;;2.42;90.07;99608.28;5044789;28;20442;-74
2022/11/21 10:06:24;;;;;;;1999.90;999.90;;;;;;;2.48;89.25;99617.91;5039181;28;20037;-74
2022/11/21 10:09:01;;;;;;;1999.90;999.90;;;;;;;2.44;88.38;99622.22;5044880;28;20484;-74
2022/11/21 10:11:35;;;;;;;1999.90;999.90;;;;;;;2.48;89.07;99618.78;5041967;28;20095;-74
2022/11/21 10:14:23;;;;;;;1999.90;999.90;;;;;;;2.56;89.02;99624.06;5040667;28;20049;-75
2022/11/21 10:16:59;;;;;;;1999.90;999.90;;;;;;;2.65;87.64;99626.78;5040177;28;20044;-75
2022/11/21 10:19:46;;;;;;;1999.90;999.90;;;;;;;2.45;88.16;99631.75;5039098;28;20068;-75
2022/11/21 10:22:50;;;;;;;1999.90;999.90;;;;;;;2.45;88.08;99634.38;5038826;28;20400;-75
2022/11/21 10:25:23;;;;;;;1999.90;999.90;;;;;;;2.30;88.13;99623.75;5041221;28;20096;-75
2022/11/21 10:28:02;;;;;;;1999.90;999.90;;;;;;;2.21;89.71;99624.53;5036626;28;20149;-75
2022/11/21 10:30:28;;;;;;;1999.90;999.90;;;;;;;2.49;89.89;99630.06;5035076;28;20116;-74
2022/11/21 10:33:02;;;;;;;1999.90;999.90;;;;;;;2.63;89.25;99626.75;5044308;28;20103;-74
2022/11/21 10:35:39;;;;;;;1999.90;999.90;;;;;;;2.72;87.01;99625.97;5039758;28;20500;-74
2022/11/21 10:38:19;;;;;;;1999.90;999.90;;;;;;;2.67;86.87;99624.19;5041857;28;20484;-75
2022/11/21 10:40:54;;;;;;;1999.90;999.90;;;;;;;2.57;86.39;99634.53;5008599;28;20034;-75
2022/11/21 10:46:26;;;;;;;1999.90;999.90;;;;;;;2.46;89.15;99638.72;5042166;28;20064;-75
2022/11/21 10:48:58;;;;;;;1999.90;999.90;;;;;;;2.54;88.05;99637.09;5041315;28;20060;-75
2022/11/21 10:51:39;;;;;;;1999.90;999.90;;;;;;;2.55;87.76;99638.84;5038665;28;20095;-75
2022/11/21 10:57:01;;;;;;;1999.90;999.90;;;;;;;2.69;87.88;99641.59;5043992;28;20041;-75
2022/11/21 10:59:28;;;;;;;1999.90;999.90;;;;;;;2.59;88.50;99645.84;5039217;28;20041;-74
2022/11/21 11:02:20;;;;;;;1999.90;999.90;;;;;;;2.49;87.84;99651.78;5043028;28;20037;-74
2022/11/21 11:04:46;;;;;;;1999.90;999.90;;;;;;;2.67;88.54;99645.03;5035811;28;20038;-74
2022/11/21 11:07:29;;;;;;;1999.90;999.90;;;;;;;2.79;87.75;99645.19;5040500;28;20059;-74
2022/11/21 11:10:15;;;;;;;1999.90;999.90;;;;;;;2.98;86.92;99656.66;5041525;28;20029;-74
2022/11/21 11:15:26;;;;;;;1999.90;999.90;;;;;;;2.69;87.36;99652.00;5042349;28;20029;-74
2022/11/21 11:18:00;;;;;;;1999.90;999.90;;;;;;;2.58;87.69;99654.50;5038582;28;20037;-74
2022/11/21 11:20:35;;;;;;;1999.90;999.90;;;;;;;2.48;88.03;99655.22;5044994;28;20037;-74
2022/11/21 11:23:15;;;;;;;1999.90;999.90;;;;;;;2.23;89.52;99663.56;5023191;28;20044;-74